Terminal Aerodrome Forecast
Issued by NWS Spokane, WA

Home | Current Version | Previous Version | Text Only | Print | Product List | Glossary On
Versions: 1 2 3 4 5 6 7 8 9 10 11 12 13
000
FTUS46 KOTX 270523
TAFLWS
TAF
KLWS 270523Z 2706/2806 08005KT P6SM -SHRA BKN045 OVC060
     FM270700 17004KT P6SM -RA BKN025 OVC040
     FM271000 27005KT P6SM VCSH FEW005 BKN035
     FM271800 31006KT P6SM VCSH BKN035 BKN080
     FM280300 25006KT P6SM SCT060 SCT120 BKN200=

USA.gov is the U.S. government's official web portal to all federal, state and local government web resources and services.